sensor_id;sensor_type;location;lat;lon;timestamp;pressure;altitude;pressure_sealevel;temperature;humidity
13867;BME280;7003;46.982;15.248;2023-06-22T00:01:17;97545.78;;;19.88;100.00
13867;BME280;7003;46.982;15.248;2023-06-22T00:03:46;97542.75;;;19.96;100.00
13867;BME280;7003;46.982;15.248;2023-06-22T00:06:13;97544.31;;;19.97;100.00
13867;BME280;7003;46.982;15.248;2023-06-22T00:08:41;97540.78;;;19.93;100.00
13867;BME280;7003;46.982;15.248;2023-06-22T00:11:10;97549.59;;;19.83;100.00
13867;BME280;7003;46.982;15.248;2023-06-22T00:13:40;97543.78;;;19.78;100.00
13867;BME280;7003;46.982;15.248;2023-06-22T00:16:08;97545.66;;;19.67;100.00
13867;BME280;7003;46.982;15.248;2023-06-22T00:18:37;97550.53;;;19.50;100.00
13867;BME280;7003;46.982;15.248;2023-06-22T00:21:04;97553.59;;;19.52;100.00
13867;BME280;7003;46.982;15.248;2023-06-22T00:23:34;97547.97;;;19.72;100.00
13867;BME280;7003;46.982;15.248;2023-06-22T00:26:01;97545.59;;;19.63;100.00
13867;BME280;7003;46.982;15.248;2023-06-22T00:28:30;97540.19;;;19.63;100.00
13867;BME280;7003;46.982;15.248;2023-06-22T00:30:57;97537.09;;;19.61;100.00
13867;BME280;7003;46.982;15.248;2023-06-22T00:33:27;97535.69;;;19.34;100.00
13867;BME280;7003;46.982;15.248;2023-06-22T00:35:57;97534.63;;;19.42;100.00
13867;BME280;7003;46.982;15.248;2023-06-22T00:38:27;97541.94;;;19.41;100.00
13867;BME280;7003;46.982;15.248;2023-06-22T00:40:56;97542.97;;;19.30;100.00
13867;BME280;7003;46.982;15.248;2023-06-22T00:43:23;97539.13;;;19.27;100.00
13867;BME280;7003;46.982;15.248;2023-06-22T00:45:52;97534.81;;;19.22;100.00
13867;BME280;7003;46.982;15.248;2023-06-22T00:48:22;97530.22;;;19.23;100.00
13867;BME280;7003;46.982;15.248;2023-06-22T00:50:50;97528.34;;;19.27;100.00
13867;BME280;7003;46.982;15.248;2023-06-22T00:53:21;97537.81;;;19.14;100.00
13867;BME280;7003;46.982;15.248;2023-06-22T00:55:50;97531.94;;;19.05;100.00
13867;BME280;7003;46.982;15.248;2023-06-22T00:58:21;97526.50;;;18.98;100.00
13867;BME280;7003;46.982;15.248;2023-06-22T01:00:51;97531.88;;;18.98;100.00
13867;BME280;7003;46.982;15.248;2023-06-22T01:03:21;97531.00;;;18.87;100.00
13867;BME280;7003;46.982;15.248;2023-06-22T01:05:50;97529.03;;;18.83;100.00
13867;BME280;7003;46.982;15.248;2023-06-22T01:08:26;97514.78;;;18.79;100.00
13867;BME280;7003;46.982;15.248;2023-06-22T01:11:01;97524.41;;;18.80;100.00
13867;BME280;7003;46.982;15.248;2023-06-22T01:13:37;97527.50;;;18.82;100.00
13867;BME280;7003;46.982;15.248;2023-06-22T01:16:10;97530.03;;;18.68;100.00
13867;BME280;7003;46.982;15.248;2023-06-22T01:18:42;97524.94;;;18.60;100.00
13867;BME280;7003;46.982;15.248;2023-06-22T01:21:14;97523.06;;;18.64;100.00
13867;BME280;7003;46.982;15.248;2023-06-22T01:23:54;97520.69;;;18.59;100.00
13867;BME280;7003;46.982;15.248;2023-06-22T01:26:29;97519.53;;;18.60;100.00
13867;BME280;7003;46.982;15.248;2023-06-22T01:29:04;97527.50;;;18.53;100.00
13867;BME280;7003;46.982;15.248;2023-06-22T01:31:32;97528.41;;;18.60;100.00
13867;BME280;7003;46.982;15.248;2023-06-22T01:34:03;97522.91;;;18.53;100.00
13867;BME280;7003;46.982;15.248;2023-06-22T01:36:32;97520.19;;;18.50;100.00
13867;BME280;7003;46.982;15.248;2023-06-22T01:39:00;97522.81;;;18.46;100.00
13867;BME280;7003;46.982;15.248;2023-06-22T01:41:34;97512.03;;;18.42;100.00
13867;BME280;7003;46.982;15.248;2023-06-22T01:44:05;97522.75;;;18.39;100.00
13867;BME280;7003;46.982;15.248;2023-06-22T01:46:33;97529.88;;;18.24;100.00
13867;BME280;7003;46.982;15.248;2023-06-22T01:49:02;97525.03;;;18.37;100.00
13867;BME280;7003;46.982;15.248;2023-06-22T01:51:32;97531.25;;;18.41;100.00
13867;BME280;7003;46.982;15.248;2023-06-22T01:54:00;97526.56;;;18.34;100.00
13867;BME280;7003;46.982;15.248;2023-06-22T01:56:27;97523.28;;;18.52;100.00
13867;BME280;7003;46.982;15.248;2023-06-22T01:59:07;97519.00;;;18.47;100.00
13867;BME280;7003;46.982;15.248;2023-06-22T02:01:42;97512.38;;;18.41;100.00
13867;BME280;7003;46.982;15.248;2023-06-22T02:04:18;97516.56;;;18.35;100.00
13867;BME280;7003;46.982;15.248;2023-06-22T02:06:50;97524.38;;;18.47;100.00
13867;BME280;7003;46.982;15.248;2023-06-22T02:09:21;97520.78;;;18.36;100.00
13867;BME280;7003;46.982;15.248;2023-06-22T02:11:52;97516.16;;;18.36;100.00
13867;BME280;7003;46.982;15.248;2023-06-22T02:14:23;97521.63;;;18.43;100.00
13867;BME280;7003;46.982;15.248;2023-06-22T02:16:51;97528.91;;;18.39;100.00
13867;BME280;7003;46.982;15.248;2023-06-22T02:19:23;97528.47;;;18.34;100.00
13867;BME280;7003;46.982;15.248;2023-06-22T02:21:52;97536.84;;;18.29;100.00
13867;BME280;7003;46.982;15.248;2023-06-22T02:24:19;97529.50;;;18.26;100.00
13867;BME280;7003;46.982;15.248;2023-06-22T02:26:49;97537.09;;;18.17;100.00
13867;BME280;7003;46.982;15.248;2023-06-22T02:29:16;97536.31;;;18.16;100.00
13867;BME280;7003;46.982;15.248;2023-06-22T02:31:44;97543.59;;;18.16;100.00
13867;BME280;7003;46.982;15.248;2023-06-22T02:34:12;97535.59;;;18.19;100.00
13867;BME280;7003;46.982;15.248;2023-06-22T02:36:46;97534.81;;;18.19;100.00
13867;BME280;7003;46.982;15.248;2023-06-22T02:39:20;97538.56;;;18.14;100.00
13867;BME280;7003;46.982;15.248;2023-06-22T02:41:50;97539.31;;;18.11;100.00
13867;BME280;7003;46.982;15.248;2023-06-22T02:44:19;97544.81;;;18.18;100.00
13867;BME280;7003;46.982;15.248;2023-06-22T02:46:49;97547.44;;;18.15;100.00
13867;BME280;7003;46.982;15.248;2023-06-22T02:49:16;97554.00;;;18.17;100.00
13867;BME280;7003;46.982;15.248;2023-06-22T02:51:47;97554.63;;;18.07;100.00
13867;BME280;7003;46.982;15.248;2023-06-22T02:54:17;97558.44;;;18.02;100.00
13867;BME280;7003;46.982;15.248;2023-06-22T02:56:45;97553.72;;;17.96;100.00
13867;BME280;7003;46.982;15.248;2023-06-22T02:59:16;97558.31;;;17.95;100.00
13867;BME280;7003;46.982;15.248;2023-06-22T03:01:44;97560.59;;;17.93;100.00
13867;BME280;7003;46.982;15.248;2023-06-22T03:04:13;97561.38;;;17.94;100.00
13867;BME280;7003;46.982;15.248;2023-06-22T03:06:42;97557.53;;;17.95;100.00
13867;BME280;7003;46.982;15.248;2023-06-22T03:09:09;97559.56;;;18.01;100.00
13867;BME280;7003;46.982;15.248;2023-06-22T03:11:38;97562.69;;;18.03;100.00
13867;BME280;7003;46.982;15.248;2023-06-22T03:14:06;97556.97;;;18.08;100.00
13867;BME280;7003;46.982;15.248;2023-06-22T03:16:34;97552.09;;;17.91;100.00
13867;BME280;7003;46.982;15.248;2023-06-22T03:19:06;97561.06;;;17.99;100.00
13867;BME280;7003;46.982;15.248;2023-06-22T03:21:38;97559.09;;;17.96;100.00
13867;BME280;7003;46.982;15.248;2023-06-22T03:24:06;97551.66;;;17.86;100.00
13867;BME280;7003;46.982;15.248;2023-06-22T03:26:37;97550.59;;;17.94;100.00
13867;BME280;7003;46.982;15.248;2023-06-22T03:29:08;97546.72;;;17.91;100.00
13867;BME280;7003;46.982;15.248;2023-06-22T03:31:39;97549.56;;;18.02;100.00
13867;BME280;7003;46.982;15.248;2023-06-22T03:34:06;97559.91;;;18.00;100.00
13867;BME280;7003;46.982;15.248;2023-06-22T03:36:39;97559.09;;;17.96;100.00
13867;BME280;7003;46.982;15.248;2023-06-22T03:39:07;97563.81;;;18.02;100.00
13867;BME280;7003;46.982;15.248;2023-06-22T03:41:35;97569.03;;;17.92;100.00
13867;BME280;7003;46.982;15.248;2023-06-22T03:44:03;97573.63;;;17.91;100.00
13867;BME280;7003;46.982;15.248;2023-06-22T03:46:36;97562.94;;;17.95;100.00
13867;BME280;7003;46.982;15.248;2023-06-22T03:49:05;97556.34;;;17.92;100.00
13867;BME280;7003;46.982;15.248;2023-06-22T03:51:33;97554.94;;;17.76;100.00
13867;BME280;7003;46.982;15.248;2023-06-22T03:54:05;97563.09;;;17.79;100.00
13867;BME280;7003;46.982;15.248;2023-06-22T03:56:34;97551.31;;;17.91;100.00
13867;BME280;7003;46.982;15.248;2023-06-22T03:59:02;97560.63;;;17.97;100.00
13867;BME280;7003;46.982;15.248;2023-06-22T04:01:30;97563.16;;;18.13;100.00
13867;BME280;7003;46.982;15.248;2023-06-22T04:04:01;97564.09;;;17.97;100.00
13867;BME280;7003;46.982;15.248;2023-06-22T04:06:32;97565.66;;;17.98;100.00
13867;BME280;7003;46.982;15.248;2023-06-22T04:09:06;97568.06;;;18.03;100.00
13867;BME280;7003;46.982;15.248;2023-06-22T04:11:36;97562.25;;;18.01;100.00
13867;BME280;7003;46.982;15.248;2023-06-22T04:14:09;97555.41;;;17.81;100.00
13867;BME280;7003;46.982;15.248;2023-06-22T04:16:38;97550.72;;;18.01;100.00
13867;BME280;7003;46.982;15.248;2023-06-22T04:19:08;97545.47;;;18.12;100.00
13867;BME280;7003;46.982;15.248;2023-06-22T04:21:43;97547.22;;;18.27;100.00
13867;BME280;7003;46.982;15.248;2023-06-22T04:24:15;97541.72;;;18.20;100.00
13867;BME280;7003;46.982;15.248;2023-06-22T04:26:43;97556.44;;;18.26;100.00
13867;BME280;7003;46.982;15.248;2023-06-22T04:29:14;97551.09;;;18.29;100.00
13867;BME280;7003;46.982;15.248;2023-06-22T04:31:41;97558.63;;;18.46;100.00
13867;BME280;7003;46.982;15.248;2023-06-22T04:34:10;97557.25;;;18.56;100.00
13867;BME280;7003;46.982;15.248;2023-06-22T04:36:40;97553.72;;;18.56;100.00
13867;BME280;7003;46.982;15.248;2023-06-22T04:39:09;97559.19;;;18.59;100.00
13867;BME280;7003;46.982;15.248;2023-06-22T04:41:41;97551.97;;;18.67;100.00
13867;BME280;7003;46.982;15.248;2023-06-22T04:44:10;97555.28;;;18.87;100.00
13867;BME280;7003;46.982;15.248;2023-06-22T04:46:41;97554.22;;;18.98;100.00
13867;BME280;7003;46.982;15.248;2023-06-22T04:49:09;97550.47;;;19.06;100.00
13867;BME280;7003;46.982;15.248;2023-06-22T04:51:39;97549.78;;;19.16;100.00
13867;BME280;7003;46.982;15.248;2023-06-22T04:54:08;97544.72;;;19.52;100.00
13867;BME280;7003;46.982;15.248;2023-06-22T04:56:36;97542.53;;;19.65;100.00
13867;BME280;7003;46.982;15.248;2023-06-22T04:59:08;97540.31;;;19.77;100.00
13867;BME280;7003;46.982;15.248;2023-06-22T05:01:43;97538.13;;;19.97;100.00
13867;BME280;7003;46.982;15.248;2023-06-22T05:04:17;97548.66;;;20.16;100.00
13867;BME280;7003;46.982;15.248;2023-06-22T05:06:47;97533.72;;;20.36;100.00
13867;BME280;7003;46.982;15.248;2023-06-22T05:09:15;97528.78;;;20.49;100.00
13867;BME280;7003;46.982;15.248;2023-06-22T05:11:44;97529.63;;;20.71;100.00
13867;BME280;7003;46.982;15.248;2023-06-22T05:14:14;97536.56;;;20.75;100.00
13867;BME280;7003;46.982;15.248;2023-06-22T05:16:46;97527.75;;;20.96;100.00
13867;BME280;7003;46.982;15.248;2023-06-22T05:19:14;97524.22;;;20.78;100.00
13867;BME280;7003;46.982;15.248;2023-06-22T05:21:42;97516.19;;;21.03;100.00
13867;BME280;7003;46.982;15.248;2023-06-22T05:24:11;97517.69;;;21.00;100.00
13867;BME280;7003;46.982;15.248;2023-06-22T05:26:40;97518.84;;;20.89;100.00
13867;BME280;7003;46.982;15.248;2023-06-22T05:29:10;97519.25;;;21.01;100.00
13867;BME280;7003;46.982;15.248;2023-06-22T05:31:40;97521.59;;;21.13;100.00
13867;BME280;7003;46.982;15.248;2023-06-22T05:34:10;97514.69;;;21.55;100.00
13867;BME280;7003;46.982;15.248;2023-06-22T05:36:39;97519.69;;;21.74;100.00
13867;BME280;7003;46.982;15.248;2023-06-22T05:39:12;97525.47;;;21.76;100.00
13867;BME280;7003;46.982;15.248;2023-06-22T05:41:41;97511.56;;;21.88;100.00
13867;BME280;7003;46.982;15.248;2023-06-22T05:44:10;97513.13;;;21.82;100.00
13867;BME280;7003;46.982;15.248;2023-06-22T05:46:41;97509.66;;;21.64;100.00
13867;BME280;7003;46.982;15.248;2023-06-22T05:49:11;97509.59;;;22.00;100.00
13867;BME280;7003;46.982;15.248;2023-06-22T05:51:42;97516.16;;;22.16;100.00
13867;BME280;7003;46.982;15.248;2023-06-22T05:54:12;97515.31;;;22.30;100.00
13867;BME280;7003;46.982;15.248;2023-06-22T05:56:44;97497.75;;;22.67;100.00
13867;BME280;7003;46.982;15.248;2023-06-22T05:59:12;97506.63;;;22.71;100.00
13867;BME280;7003;46.982;15.248;2023-06-22T06:01:43;97506.47;;;23.06;100.00
13867;BME280;7003;46.982;15.248;2023-06-22T06:04:11;97506.53;;;22.95;100.00
13867;BME280;7003;46.982;15.248;2023-06-22T06:06:41;97506.31;;;23.24;100.00
13867;BME280;7003;46.982;15.248;2023-06-22T06:09:10;97513.19;;;23.39;100.00
13867;BME280;7003;46.982;15.248;2023-06-22T06:11:39;97515.78;;;23.57;100.00
13867;BME280;7003;46.982;15.248;2023-06-22T06:14:06;97513.16;;;23.42;100.00
13867;BME280;7003;46.982;15.248;2023-06-22T06:16:36;97500.91;;;23.72;100.00
13867;BME280;7003;46.982;15.248;2023-06-22T06:19:05;97497.34;;;23.78;100.00
13867;BME280;7003;46.982;15.248;2023-06-22T06:21:32;97500.25;;;23.61;100.00
13867;BME280;7003;46.982;15.248;2023-06-22T06:24:00;97498.66;;;24.01;100.00
13867;BME280;7003;46.982;15.248;2023-06-22T06:26:27;97501.19;;;24.18;100.00
13867;BME280;7003;46.982;15.248;2023-06-22T06:28:55;97496.78;;;24.32;100.00
13867;BME280;7003;46.982;15.248;2023-06-22T06:31:25;97491.97;;;24.46;100.00
13867;BME280;7003;46.982;15.248;2023-06-22T06:33:54;97489.66;;;24.45;100.00
13867;BME280;7003;46.982;15.248;2023-06-22T06:36:23;97481.59;;;24.68;100.00
13867;BME280;7003;46.982;15.248;2023-06-22T06:38:53;97486.09;;;24.78;100.00
13867;BME280;7003;46.982;15.248;2023-06-22T06:41:20;97485.09;;;24.96;100.00
13867;BME280;7003;46.982;15.248;2023-06-22T06:43:50;97478.88;;;24.95;100.00
13867;BME280;7003;46.982;15.248;2023-06-22T06:46:18;97480.22;;;24.83;100.00
13867;BME280;7003;46.982;15.248;2023-06-22T06:48:46;97480.56;;;25.12;100.00
13867;BME280;7003;46.982;15.248;2023-06-22T06:51:13;97477.72;;;24.96;100.00
13867;BME280;7003;46.982;15.248;2023-06-22T06:53:42;97480.31;;;25.03;100.00
13867;BME280;7003;46.982;15.248;2023-06-22T06:56:09;97476.81;;;24.76;100.00
13867;BME280;7003;46.982;15.248;2023-06-22T06:58:41;97479.53;;;24.76;100.00
13867;BME280;7003;46.982;15.248;2023-06-22T07:01:13;97477.41;;;24.90;100.00
13867;BME280;7003;46.982;15.248;2023-06-22T07:03:40;97474.66;;;25.17;100.00
13867;BME280;7003;46.982;15.248;2023-06-22T07:06:08;97471.41;;;25.26;100.00
13867;BME280;7003;46.982;15.248;2023-06-22T07:08:35;97474.22;;;25.46;100.00
13867;BME280;7003;46.982;15.248;2023-06-22T07:11:06;97471.53;;;25.65;100.00
13867;BME280;7003;46.982;15.248;2023-06-22T07:13:36;97470.91;;;26.01;100.00
13867;BME280;7003;46.982;15.248;2023-06-22T07:16:04;97478.63;;;25.83;100.00
13867;BME280;7003;46.982;15.248;2023-06-22T07:18:32;97473.00;;;26.13;100.00
13867;BME280;7003;46.982;15.248;2023-06-22T07:20:59;97475.78;;;26.10;100.00
13867;BME280;7003;46.982;15.248;2023-06-22T07:23:29;97462.53;;;26.31;100.00
13867;BME280;7003;46.982;15.248;2023-06-22T07:25:56;97461.44;;;26.81;100.00
13867;BME280;7003;46.982;15.248;2023-06-22T07:28:25;97465.78;;;26.98;100.00
13867;BME280;7003;46.982;15.248;2023-06-22T07:30:52;97468.59;;;27.43;100.00
13867;BME280;7003;46.982;15.248;2023-06-22T07:33:19;97469.00;;;27.42;100.00
13867;BME280;7003;46.982;15.248;2023-06-22T07:35:47;97468.34;;;27.22;100.00
13867;BME280;7003;46.982;15.248;2023-06-22T07:38:17;97464.09;;;26.68;100.00
13867;BME280;7003;46.982;15.248;2023-06-22T07:40:47;97457.03;;;26.87;100.00
13867;BME280;7003;46.982;15.248;2023-06-22T07:43:17;97461.97;;;26.76;100.00
13867;BME280;7003;46.982;15.248;2023-06-22T07:45:49;97456.91;;;27.27;100.00
13867;BME280;7003;46.982;15.248;2023-06-22T07:48:21;97461.47;;;27.78;100.00
13867;BME280;7003;46.982;15.248;2023-06-22T07:50:51;97455.19;;;28.23;100.00
13867;BME280;7003;46.982;15.248;2023-06-22T07:53:20;97462.78;;;28.44;100.00
13867;BME280;7003;46.982;15.248;2023-06-22T07:55:49;97460.38;;;28.46;100.00
13867;BME280;7003;46.982;15.248;2023-06-22T07:58:16;97462.63;;;28.22;100.00
13867;BME280;7003;46.982;15.248;2023-06-22T08:00:47;97458.16;;;28.00;100.00
13867;BME280;7003;46.982;15.248;2023-06-22T08:03:16;97457.94;;;28.23;100.00
13867;BME280;7003;46.982;15.248;2023-06-22T08:05:43;97453.72;;;28.60;100.00
13867;BME280;7003;46.982;15.248;2023-06-22T08:08:13;97443.34;;;28.93;100.00
13867;BME280;7003;46.982;15.248;2023-06-22T08:10:41;97450.44;;;29.16;100.00
13867;BME280;7003;46.982;15.248;2023-06-22T08:13:09;97453.00;;;29.10;100.00
13867;BME280;7003;46.982;15.248;2023-06-22T08:15:37;97451.97;;;29.29;100.00
13867;BME280;7003;46.982;15.248;2023-06-22T08:18:05;97440.63;;;29.53;100.00
13867;BME280;7003;46.982;15.248;2023-06-22T08:20:37;97438.59;;;29.66;100.00
13867;BME280;7003;46.982;15.248;2023-06-22T08:23:04;97436.88;;;29.94;100.00
13867;BME280;7003;46.982;15.248;2023-06-22T08:25:32;97428.97;;;30.17;92.59
13867;BME280;7003;46.982;15.248;2023-06-22T08:28:03;97426.59;;;29.85;97.19
13867;BME280;7003;46.982;15.248;2023-06-22T08:30:32;97438.59;;;30.00;96.25
13867;BME280;7003;46.982;15.248;2023-06-22T08:33:00;97433.81;;;30.13;89.74
13867;BME280;7003;46.982;15.248;2023-06-22T08:35:27;97435.25;;;29.62;100.00
13867;BME280;7003;46.982;15.248;2023-06-22T08:37:58;97444.16;;;29.75;100.00
13867;BME280;7003;46.982;15.248;2023-06-22T08:40:30;97440.84;;;30.14;100.00
13867;BME280;7003;46.982;15.248;2023-06-22T08:42:57;97426.50;;;30.10;96.06
13867;BME280;7003;46.982;15.248;2023-06-22T08:45:24;97438.88;;;29.93;86.95
13867;BME280;7003;46.982;15.248;2023-06-22T08:47:55;97438.69;;;30.09;97.74
13867;BME280;7003;46.982;15.248;2023-06-22T08:50:22;97436.50;;;29.35;98.58
13867;BME280;7003;46.982;15.248;2023-06-22T08:52:50;97426.75;;;29.69;100.00
13867;BME280;7003;46.982;15.248;2023-06-22T08:55:18;97418.63;;;30.21;99.92
13867;BME280;7003;46.982;15.248;2023-06-22T08:57:48;97423.44;;;30.61;99.42
13867;BME280;7003;46.982;15.248;2023-06-22T09:00:17;97420.78;;;30.88;95.92
13867;BME280;7003;46.982;15.248;2023-06-22T09:02:46;97415.91;;;30.92;87.04
13867;BME280;7003;46.982;15.248;2023-06-22T09:05:15;97414.34;;;30.73;89.61
13867;BME280;7003;46.982;15.248;2023-06-22T09:07:45;97415.84;;;30.74;81.23
13867;BME280;7003;46.982;15.248;2023-06-22T09:10:13;97412.63;;;31.16;92.13
13867;BME280;7003;46.982;15.248;2023-06-22T09:12:44;97413.84;;;30.35;83.45
13867;BME280;7003;46.982;15.248;2023-06-22T09:15:11;97411.88;;;30.75;87.36
13867;BME280;7003;46.982;15.248;2023-06-22T09:17:40;97411.03;;;30.87;79.36
13867;BME280;7003;46.982;15.248;2023-06-22T09:20:10;97410.28;;;31.05;80.44
13867;BME280;7003;46.982;15.248;2023-06-22T09:22:40;97409.84;;;30.57;76.07
13867;BME280;7003;46.982;15.248;2023-06-22T09:25:10;97410.31;;;30.56;81.65
13867;BME280;7003;46.982;15.248;2023-06-22T09:27:38;97414.41;;;30.30;74.61
13867;BME280;7003;46.982;15.248;2023-06-22T09:30:08;97417.16;;;30.60;81.89
13867;BME280;7003;46.982;15.248;2023-06-22T09:32:35;97411.06;;;31.06;77.12
13867;BME280;7003;46.982;15.248;2023-06-22T09:35:05;97403.59;;;31.06;85.10
13867;BME280;7003;46.982;15.248;2023-06-22T09:37:35;97402.91;;;30.84;72.14
13867;BME280;7003;46.982;15.248;2023-06-22T09:40:06;97395.16;;;30.91;78.79
13867;BME280;7003;46.982;15.248;2023-06-22T09:42:36;97394.50;;;31.27;76.31
13867;BME280;7003;46.982;15.248;2023-06-22T09:45:07;97394.66;;;31.33;71.16
13867;BME280;7003;46.982;15.248;2023-06-22T09:47:35;97389.19;;;31.69;69.41
13867;BME280;7003;46.982;15.248;2023-06-22T09:50:05;97388.22;;;31.91;67.51
13867;BME280;7003;46.982;15.248;2023-06-22T09:52:34;97390.53;;;32.01;67.81
13867;BME280;7003;46.982;15.248;2023-06-22T09:55:01;97382.91;;;31.69;66.58
13867;BME280;7003;46.982;15.248;2023-06-22T09:57:31;97381.84;;;31.76;73.33
13867;BME280;7003;46.982;15.248;2023-06-22T10:00:01;97385.47;;;32.00;69.59
13867;BME280;7003;46.982;15.248;2023-06-22T10:02:35;97374.88;;;30.49;74.68
13867;BME280;7003;46.982;15.248;2023-06-22T10:05:03;97392.41;;;29.77;85.50
13867;BME280;7003;46.982;15.248;2023-06-22T10:07:31;97388.50;;;30.31;85.02
13867;BME280;7003;46.982;15.248;2023-06-22T10:09:58;97389.22;;;30.22;82.85
13867;BME280;7003;46.982;15.248;2023-06-22T10:12:27;97376.16;;;30.57;75.23
13867;BME280;7003;46.982;15.248;2023-06-22T10:14:54;97374.34;;;30.63;78.93
13867;BME280;7003;46.982;15.248;2023-06-22T10:17:24;97376.91;;;31.16;85.39
13867;BME280;7003;46.982;15.248;2023-06-22T10:19:55;97372.81;;;31.48;75.48
13867;BME280;7003;46.982;15.248;2023-06-22T10:22:23;97371.47;;;31.70;76.78
13867;BME280;7003;46.982;15.248;2023-06-22T10:24:52;97368.38;;;31.96;74.50
13867;BME280;7003;46.982;15.248;2023-06-22T10:27:19;97366.22;;;32.00;74.09
13867;BME280;7003;46.982;15.248;2023-06-22T10:29:47;97365.22;;;32.39;72.56
13867;BME280;7003;46.982;15.248;2023-06-22T10:32:14;97365.09;;;32.25;72.39
13867;BME280;7003;46.982;15.248;2023-06-22T10:34:41;97372.78;;;32.54;71.13
13867;BME280;7003;46.982;15.248;2023-06-22T10:37:10;97363.78;;;32.86;67.29
13867;BME280;7003;46.982;15.248;2023-06-22T10:39:37;97361.84;;;33.01;67.78
13867;BME280;7003;46.982;15.248;2023-06-22T10:42:05;97369.00;;;32.84;65.49
13867;BME280;7003;46.982;15.248;2023-06-22T10:44:32;97363.03;;;33.09;66.43
13867;BME280;7003;46.982;15.248;2023-06-22T10:47:00;97358.13;;;33.37;65.00
13867;BME280;7003;46.982;15.248;2023-06-22T10:49:30;97360.75;;;33.32;68.04
13867;BME280;7003;46.982;15.248;2023-06-22T10:52:00;97361.34;;;31.95;68.76
13867;BME280;7003;46.982;15.248;2023-06-22T10:54:29;97360.94;;;30.74;76.25
13867;BME280;7003;46.982;15.248;2023-06-22T10:56:56;97345.50;;;31.35;77.19
13867;BME280;7003;46.982;15.248;2023-06-22T10:59:26;97343.19;;;31.88;78.73
13867;BME280;7003;46.982;15.248;2023-06-22T11:01:55;97340.28;;;32.43;73.52
13867;BME280;7003;46.982;15.248;2023-06-22T11:04:22;97344.84;;;32.79;70.46
13867;BME280;7003;46.982;15.248;2023-06-22T11:06:50;97347.31;;;33.01;72.09
13867;BME280;7003;46.982;15.248;2023-06-22T11:09:19;97334.13;;;33.05;68.97
13867;BME280;7003;46.982;15.248;2023-06-22T11:11:49;97329.81;;;32.89;68.71
13867;BME280;7003;46.982;15.248;2023-06-22T11:14:19;97325.69;;;33.47;68.79
13867;BME280;7003;46.982;15.248;2023-06-22T11:16:46;97327.66;;;33.08;67.33
13867;BME280;7003;46.982;15.248;2023-06-22T11:19:16;97330.53;;;32.33;77.96
13867;BME280;7003;46.982;15.248;2023-06-22T11:21:43;97329.09;;;33.03;70.10
13867;BME280;7003;46.982;15.248;2023-06-22T11:24:10;97333.19;;;33.32;67.13
13867;BME280;7003;46.982;15.248;2023-06-22T11:26:38;97332.53;;;33.37;68.54
13867;BME280;7003;46.982;15.248;2023-06-22T11:29:09;97333.41;;;33.19;68.65
13867;BME280;7003;46.982;15.248;2023-06-22T11:31:38;97334.59;;;33.03;64.98
13867;BME280;7003;46.982;15.248;2023-06-22T11:34:08;97334.63;;;33.42;65.98
13867;BME280;7003;46.982;15.248;2023-06-22T11:36:35;97326.09;;;33.69;64.13
13867;BME280;7003;46.982;15.248;2023-06-22T11:39:05;97316.91;;;33.87;61.54
13867;BME280;7003;46.982;15.248;2023-06-22T11:41:35;97315.50;;;34.06;61.37
13867;BME280;7003;46.982;15.248;2023-06-22T11:44:05;97318.69;;;33.60;67.22
13867;BME280;7003;46.982;15.248;2023-06-22T11:46:36;97319.50;;;33.90;59.55
13867;BME280;7003;46.982;15.248;2023-06-22T11:49:07;97315.69;;;33.88;59.07
13867;BME280;7003;46.982;15.248;2023-06-22T11:51:34;97313.34;;;34.16;59.02
13867;BME280;7003;46.982;15.248;2023-06-22T11:54:04;97305.38;;;34.18;58.21
13867;BME280;7003;46.982;15.248;2023-06-22T11:56:32;97300.06;;;34.29;56.55
13867;BME280;7003;46.982;15.248;2023-06-22T11:59:00;97292.53;;;34.29;57.78
13867;BME280;7003;46.982;15.248;2023-06-22T12:01:27;97284.97;;;34.45;55.98
13867;BME280;7003;46.982;15.248;2023-06-22T12:03:56;97286.28;;;34.49;56.26
13867;BME280;7003;46.982;15.248;2023-06-22T12:06:23;97289.19;;;33.37;57.73
13867;BME280;7003;46.982;15.248;2023-06-22T12:08:51;97283.50;;;33.99;56.45
13867;BME280;7003;46.982;15.248;2023-06-22T12:11:18;97285.63;;;33.90;60.53
13867;BME280;7003;46.982;15.248;2023-06-22T12:13:45;97280.78;;;32.69;62.63
13867;BME280;7003;46.982;15.248;2023-06-22T12:16:13;97278.28;;;32.47;61.70
13867;BME280;7003;46.982;15.248;2023-06-22T12:18:40;97271.44;;;32.01;69.93
13867;BME280;7003;46.982;15.248;2023-06-22T12:21:09;97275.00;;;32.34;68.52
13867;BME280;7003;46.982;15.248;2023-06-22T12:23:38;97280.63;;;32.73;66.97
13867;BME280;7003;46.982;15.248;2023-06-22T12:26:06;97277.25;;;32.93;63.07
13867;BME280;7003;46.982;15.248;2023-06-22T12:28:33;97278.16;;;33.37;65.42
13867;BME280;7003;46.982;15.248;2023-06-22T12:31:00;97270.16;;;33.69;66.33
13867;BME280;7003;46.982;15.248;2023-06-22T12:33:27;97273.81;;;33.60;66.22
13867;BME280;7003;46.982;15.248;2023-06-22T12:35:57;97269.50;;;34.03;63.77
13867;BME280;7003;46.982;15.248;2023-06-22T12:38:26;97253.16;;;33.70;61.74
13867;BME280;7003;46.982;15.248;2023-06-22T12:40:53;97261.56;;;33.90;59.22
13867;BME280;7003;46.982;15.248;2023-06-22T12:43:20;97254.59;;;33.51;58.12
13867;BME280;7003;46.982;15.248;2023-06-22T12:45:47;97252.63;;;34.16;60.53
13867;BME280;7003;46.982;15.248;2023-06-22T12:48:15;97245.84;;;34.66;59.27
13867;BME280;7003;46.982;15.248;2023-06-22T12:50:45;97249.66;;;34.34;57.32
13867;BME280;7003;46.982;15.248;2023-06-22T12:53:14;97253.44;;;33.28;60.01
13867;BME280;7003;46.982;15.248;2023-06-22T12:55:43;97251.19;;;32.79;60.97
13867;BME280;7003;46.982;15.248;2023-06-22T12:58:13;97253.09;;;32.73;63.07
13867;BME280;7003;46.982;15.248;2023-06-22T13:00:43;97247.00;;;33.07;66.07
13867;BME280;7003;46.982;15.248;2023-06-22T13:03:10;97242.72;;;33.06;64.80